Milwaukie, Oregon
Current Conditions -  °F | °C
As of 9:53 AM on Saturday 20 Dec 2014 (Local Time) from KPDX Reporting Station
Light Rain Light Rain  
Wind Chill: 38°   Ceiling: 2100
Heat Index: 45°   Visibility: 7mi
Dew Point: 44°   Wind: 17mph
Humidity: 97%   Direction: 110°ESE
Pressure: 29.72"   Gusts: NA
Location:  45.45°N, 122.64°W
Report Text: KPDX 201753Z 11015KT 7SM -RA FEW014 OVC021 07/07 A2972 RMK AO2 SLP062 P0007 60035 T00720067 10083 20072 55005
Loading
Personal Weather Stations






























Interactive Weather Map New forecast layout! Learn more

10-Day Weather Forecast

Advertisements
Track Severe Weather on mobile